sensor_id;sensor_type;location;lat;lon;timestamp;P1;durP1;ratioP1;P2;durP2;ratioP2
22435;SDS011;11385;50.822;4.324;2023-08-20T00:01:19;15.38;;;3.33;;
22435;SDS011;11385;50.822;4.324;2023-08-20T00:03:50;10.68;;;3.08;;
22435;SDS011;11385;50.822;4.324;2023-08-20T00:06:17;12.53;;;2.60;;
22435;SDS011;11385;50.822;4.324;2023-08-20T00:08:44;11.25;;;3.10;;
22435;SDS011;11385;50.822;4.324;2023-08-20T00:11:11;9.90;;;3.02;;
22435;SDS011;11385;50.822;4.324;2023-08-20T00:13:40;10.63;;;2.70;;
22435;SDS011;11385;50.822;4.324;2023-08-20T00:16:07;13.22;;;3.10;;
22435;SDS011;11385;50.822;4.324;2023-08-20T00:18:34;12.50;;;3.05;;
22435;SDS011;11385;50.822;4.324;2023-08-20T00:21:01;13.85;;;3.20;;
22435;SDS011;11385;50.822;4.324;2023-08-20T00:23:30;16.80;;;3.25;;
22435;SDS011;11385;50.822;4.324;2023-08-20T00:25:57;15.53;;;3.17;;
22435;SDS011;11385;50.822;4.324;2023-08-20T00:28:24;11.48;;;2.70;;
22435;SDS011;11385;50.822;4.324;2023-08-20T00:30:51;13.38;;;2.92;;
22435;SDS011;11385;50.822;4.324;2023-08-20T00:33:17;13.43;;;3.70;;
22435;SDS011;11385;50.822;4.324;2023-08-20T00:35:45;10.53;;;3.25;;
22435;SDS011;11385;50.822;4.324;2023-08-20T00:38:11;10.43;;;3.27;;
22435;SDS011;11385;50.822;4.324;2023-08-20T00:40:38;14.50;;;3.90;;
22435;SDS011;11385;50.822;4.324;2023-08-20T00:43:05;9.15;;;3.42;;
22435;SDS011;11385;50.822;4.324;2023-08-20T00:45:32;12.95;;;3.52;;
22435;SDS011;11385;50.822;4.324;2023-08-20T00:48:00;12.80;;;3.55;;
22435;SDS011;11385;50.822;4.324;2023-08-20T00:50:27;9.08;;;3.30;;
22435;SDS011;11385;50.822;4.324;2023-08-20T00:52:54;14.03;;;4.17;;
22435;SDS011;11385;50.822;4.324;2023-08-20T00:55:21;11.90;;;3.50;;
22435;SDS011;11385;50.822;4.324;2023-08-20T00:57:49;12.30;;;3.00;;
22435;SDS011;11385;50.822;4.324;2023-08-20T01:00:16;13.45;;;3.52;;
22435;SDS011;11385;50.822;4.324;2023-08-20T01:02:44;13.62;;;3.52;;
22435;SDS011;11385;50.822;4.324;2023-08-20T01:05:11;11.90;;;3.30;;
22435;SDS011;11385;50.822;4.324;2023-08-20T01:07:58;16.40;;;3.98;;
22435;SDS011;11385;50.822;4.324;2023-08-20T01:10:33;14.75;;;3.62;;
22435;SDS011;11385;50.822;4.324;2023-08-20T01:13:20;13.88;;;3.85;;
22435;SDS011;11385;50.822;4.324;2023-08-20T01:15:48;12.78;;;3.83;;
22435;SDS011;11385;50.822;4.324;2023-08-20T01:18:14;13.13;;;3.72;;
22435;SDS011;11385;50.822;4.324;2023-08-20T01:20:45;15.03;;;4.17;;
22435;SDS011;11385;50.822;4.324;2023-08-20T01:23:21;13.78;;;4.42;;
22435;SDS011;11385;50.822;4.324;2023-08-20T01:28:39;17.35;;;4.22;;
22435;SDS011;11385;50.822;4.324;2023-08-20T01:31:08;9.05;;;3.75;;
22435;SDS011;11385;50.822;4.324;2023-08-20T01:33:34;14.50;;;3.95;;
22435;SDS011;11385;50.822;4.324;2023-08-20T01:36:02;12.10;;;3.98;;
22435;SDS011;11385;50.822;4.324;2023-08-20T01:38:34;15.78;;;4.83;;
22435;SDS011;11385;50.822;4.324;2023-08-20T01:41:00;15.30;;;4.25;;
22435;SDS011;11385;50.822;4.324;2023-08-20T01:43:27;14.60;;;3.87;;
22435;SDS011;11385;50.822;4.324;2023-08-20T01:45:54;14.13;;;4.15;;
22435;SDS011;11385;50.822;4.324;2023-08-20T01:48:20;16.48;;;4.92;;
22435;SDS011;11385;50.822;4.324;2023-08-20T01:50:47;16.97;;;5.17;;
22435;SDS011;11385;50.822;4.324;2023-08-20T01:53:14;13.55;;;4.85;;
22435;SDS011;11385;50.822;4.324;2023-08-20T01:55:41;17.42;;;5.25;;
22435;SDS011;11385;50.822;4.324;2023-08-20T01:58:07;13.75;;;4.33;;
22435;SDS011;11385;50.822;4.324;2023-08-20T02:00:34;12.45;;;4.20;;
22435;SDS011;11385;50.822;4.324;2023-08-20T02:03:01;15.53;;;4.05;;
22435;SDS011;11385;50.822;4.324;2023-08-20T02:05:29;14.83;;;4.97;;
22435;SDS011;11385;50.822;4.324;2023-08-20T02:07:55;14.50;;;5.10;;
22435;SDS011;11385;50.822;4.324;2023-08-20T02:10:22;15.55;;;4.78;;
22435;SDS011;11385;50.822;4.324;2023-08-20T02:12:49;15.53;;;5.28;;
22435;SDS011;11385;50.822;4.324;2023-08-20T02:15:16;12.43;;;3.95;;
22435;SDS011;11385;50.822;4.324;2023-08-20T02:17:43;13.65;;;3.98;;
22435;SDS011;11385;50.822;4.324;2023-08-20T02:20:10;11.68;;;3.42;;
22435;SDS011;11385;50.822;4.324;2023-08-20T02:22:37;14.28;;;3.60;;
22435;SDS011;11385;50.822;4.324;2023-08-20T02:25:03;13.53;;;3.75;;
22435;SDS011;11385;50.822;4.324;2023-08-20T02:27:30;16.60;;;3.77;;
22435;SDS011;11385;50.822;4.324;2023-08-20T02:29:57;13.22;;;3.42;;
22435;SDS011;11385;50.822;4.324;2023-08-20T02:32:24;12.03;;;3.37;;
22435;SDS011;11385;50.822;4.324;2023-08-20T02:34:51;12.45;;;3.45;;
22435;SDS011;11385;50.822;4.324;2023-08-20T02:37:17;14.80;;;3.77;;
22435;SDS011;11385;50.822;4.324;2023-08-20T02:39:46;14.63;;;3.80;;
22435;SDS011;11385;50.822;4.324;2023-08-20T02:42:12;17.40;;;4.22;;
22435;SDS011;11385;50.822;4.324;2023-08-20T02:44:39;12.98;;;4.20;;
22435;SDS011;11385;50.822;4.324;2023-08-20T02:47:05;15.38;;;4.20;;
22435;SDS011;11385;50.822;4.324;2023-08-20T02:49:32;12.70;;;3.62;;
22435;SDS011;11385;50.822;4.324;2023-08-20T02:51:59;11.78;;;3.55;;
22435;SDS011;11385;50.822;4.324;2023-08-20T02:54:25;14.35;;;3.80;;
22435;SDS011;11385;50.822;4.324;2023-08-20T02:56:52;11.20;;;3.87;;
22435;SDS011;11385;50.822;4.324;2023-08-20T02:59:19;17.20;;;3.55;;
22435;SDS011;11385;50.822;4.324;2023-08-20T03:01:45;16.12;;;3.42;;
22435;SDS011;11385;50.822;4.324;2023-08-20T03:04:12;13.85;;;3.80;;
22435;SDS011;11385;50.822;4.324;2023-08-20T03:06:39;11.50;;;3.65;;
22435;SDS011;11385;50.822;4.324;2023-08-20T03:09:05;14.13;;;3.58;;
22435;SDS011;11385;50.822;4.324;2023-08-20T03:11:32;11.15;;;3.58;;
22435;SDS011;11385;50.822;4.324;2023-08-20T03:13:59;12.50;;;3.45;;
22435;SDS011;11385;50.822;4.324;2023-08-20T03:16:25;16.40;;;3.67;;
22435;SDS011;11385;50.822;4.324;2023-08-20T03:18:52;15.38;;;4.75;;
22435;SDS011;11385;50.822;4.324;2023-08-20T03:21:19;12.85;;;3.50;;
22435;SDS011;11385;50.822;4.324;2023-08-20T03:23:46;12.93;;;3.65;;
22435;SDS011;11385;50.822;4.324;2023-08-20T03:26:12;11.65;;;3.33;;
22435;SDS011;11385;50.822;4.324;2023-08-20T03:28:39;12.40;;;3.75;;
22435;SDS011;11385;50.822;4.324;2023-08-20T03:31:05;16.37;;;4.47;;
22435;SDS011;11385;50.822;4.324;2023-08-20T03:33:32;15.40;;;3.30;;
22435;SDS011;11385;50.822;4.324;2023-08-20T03:35:59;11.93;;;3.77;;
22435;SDS011;11385;50.822;4.324;2023-08-20T03:38:25;13.88;;;3.85;;
22435;SDS011;11385;50.822;4.324;2023-08-20T03:40:52;16.80;;;3.98;;
22435;SDS011;11385;50.822;4.324;2023-08-20T03:43:20;11.80;;;4.00;;
22435;SDS011;11385;50.822;4.324;2023-08-20T03:45:50;14.43;;;3.87;;
22435;SDS011;11385;50.822;4.324;2023-08-20T03:48:17;12.37;;;3.98;;
22435;SDS011;11385;50.822;4.324;2023-08-20T03:50:44;12.35;;;4.22;;
22435;SDS011;11385;50.822;4.324;2023-08-20T03:53:11;11.97;;;3.52;;
22435;SDS011;11385;50.822;4.324;2023-08-20T03:55:37;13.18;;;3.60;;
22435;SDS011;11385;50.822;4.324;2023-08-20T03:58:04;17.50;;;4.05;;
22435;SDS011;11385;50.822;4.324;2023-08-20T04:00:31;12.70;;;3.33;;
22435;SDS011;11385;50.822;4.324;2023-08-20T04:02:57;12.47;;;3.92;;
22435;SDS011;11385;50.822;4.324;2023-08-20T04:05:24;12.90;;;3.90;;
22435;SDS011;11385;50.822;4.324;2023-08-20T04:07:51;14.47;;;3.90;;
22435;SDS011;11385;50.822;4.324;2023-08-20T04:10:17;16.48;;;5.00;;
22435;SDS011;11385;50.822;4.324;2023-08-20T04:12:44;15.72;;;4.62;;
22435;SDS011;11385;50.822;4.324;2023-08-20T04:15:10;15.48;;;5.12;;
22435;SDS011;11385;50.822;4.324;2023-08-20T04:17:37;14.68;;;4.25;;
22435;SDS011;11385;50.822;4.324;2023-08-20T04:20:04;17.67;;;4.62;;
22435;SDS011;11385;50.822;4.324;2023-08-20T04:22:34;15.35;;;3.52;;
22435;SDS011;11385;50.822;4.324;2023-08-20T04:25:03;16.60;;;4.78;;
22435;SDS011;11385;50.822;4.324;2023-08-20T04:27:30;14.18;;;5.03;;
22435;SDS011;11385;50.822;4.324;2023-08-20T04:29:57;11.90;;;4.78;;
22435;SDS011;11385;50.822;4.324;2023-08-20T04:37:47;16.12;;;4.40;;
22435;SDS011;11385;50.822;4.324;2023-08-20T04:40:14;13.83;;;3.90;;
22435;SDS011;11385;50.822;4.324;2023-08-20T04:42:40;13.90;;;3.90;;
22435;SDS011;11385;50.822;4.324;2023-08-20T04:45:07;11.45;;;3.20;;
22435;SDS011;11385;50.822;4.324;2023-08-20T04:47:38;14.60;;;3.85;;
22435;SDS011;11385;50.822;4.324;2023-08-20T04:50:05;13.90;;;4.12;;
22435;SDS011;11385;50.822;4.324;2023-08-20T04:52:32;15.35;;;4.10;;
22435;SDS011;11385;50.822;4.324;2023-08-20T04:55:00;12.00;;;3.35;;
22435;SDS011;11385;50.822;4.324;2023-08-20T04:57:27;10.13;;;3.75;;
22435;SDS011;11385;50.822;4.324;2023-08-20T04:59:54;13.70;;;3.45;;
22435;SDS011;11385;50.822;4.324;2023-08-20T05:02:20;12.98;;;3.58;;
22435;SDS011;11385;50.822;4.324;2023-08-20T05:04:48;16.37;;;4.50;;
22435;SDS011;11385;50.822;4.324;2023-08-20T05:07:15;13.32;;;3.87;;
22435;SDS011;11385;50.822;4.324;2023-08-20T05:09:42;12.20;;;3.77;;
22435;SDS011;11385;50.822;4.324;2023-08-20T05:12:08;13.05;;;3.72;;
22435;SDS011;11385;50.822;4.324;2023-08-20T05:14:35;14.43;;;4.17;;
22435;SDS011;11385;50.822;4.324;2023-08-20T05:17:02;12.23;;;3.27;;
22435;SDS011;11385;50.822;4.324;2023-08-20T05:19:29;11.50;;;3.27;;
22435;SDS011;11385;50.822;4.324;2023-08-20T05:21:56;11.38;;;3.37;;
22435;SDS011;11385;50.822;4.324;2023-08-20T05:24:24;10.58;;;3.25;;
22435;SDS011;11385;50.822;4.324;2023-08-20T05:29:31;9.48;;;3.65;;
22435;SDS011;11385;50.822;4.324;2023-08-20T05:31:57;10.80;;;3.30;;
22435;SDS011;11385;50.822;4.324;2023-08-20T05:34:24;12.45;;;3.33;;
22435;SDS011;11385;50.822;4.324;2023-08-20T05:36:51;14.05;;;3.37;;
22435;SDS011;11385;50.822;4.324;2023-08-20T05:39:17;8.55;;;3.65;;
22435;SDS011;11385;50.822;4.324;2023-08-20T05:41:44;8.58;;;3.30;;
22435;SDS011;11385;50.822;4.324;2023-08-20T05:44:10;10.48;;;3.47;;
22435;SDS011;11385;50.822;4.324;2023-08-20T05:46:37;11.18;;;3.33;;
22435;SDS011;11385;50.822;4.324;2023-08-20T05:49:06;11.53;;;3.67;;
22435;SDS011;11385;50.822;4.324;2023-08-20T05:51:33;12.03;;;3.67;;
22435;SDS011;11385;50.822;4.324;2023-08-20T05:53:59;14.63;;;3.65;;
22435;SDS011;11385;50.822;4.324;2023-08-20T05:56:26;14.73;;;3.65;;
22435;SDS011;11385;50.822;4.324;2023-08-20T05:58:53;10.58;;;3.30;;
22435;SDS011;11385;50.822;4.324;2023-08-20T06:01:19;10.70;;;3.83;;
22435;SDS011;11385;50.822;4.324;2023-08-20T06:03:46;12.18;;;3.85;;
22435;SDS011;11385;50.822;4.324;2023-08-20T06:06:13;11.80;;;4.35;;
22435;SDS011;11385;50.822;4.324;2023-08-20T06:08:39;12.75;;;4.20;;
22435;SDS011;11385;50.822;4.324;2023-08-20T06:11:06;9.90;;;3.65;;
22435;SDS011;11385;50.822;4.324;2023-08-20T06:13:32;9.55;;;3.72;;
22435;SDS011;11385;50.822;4.324;2023-08-20T06:15:59;9.25;;;3.50;;
22435;SDS011;11385;50.822;4.324;2023-08-20T06:18:26;10.03;;;4.00;;
22435;SDS011;11385;50.822;4.324;2023-08-20T06:20:52;12.13;;;3.65;;
22435;SDS011;11385;50.822;4.324;2023-08-20T06:23:19;9.08;;;2.98;;
22435;SDS011;11385;50.822;4.324;2023-08-20T06:25:46;10.32;;;4.10;;
22435;SDS011;11385;50.822;4.324;2023-08-20T06:28:12;12.98;;;4.87;;
22435;SDS011;11385;50.822;4.324;2023-08-20T06:30:39;12.15;;;4.00;;
22435;SDS011;11385;50.822;4.324;2023-08-20T06:33:06;11.28;;;3.60;;
22435;SDS011;11385;50.822;4.324;2023-08-20T06:35:32;11.53;;;3.37;;
22435;SDS011;11385;50.822;4.324;2023-08-20T06:38:00;7.60;;;2.90;;
22435;SDS011;11385;50.822;4.324;2023-08-20T06:40:26;12.23;;;3.22;;
22435;SDS011;11385;50.822;4.324;2023-08-20T06:42:53;12.75;;;3.42;;
22435;SDS011;11385;50.822;4.324;2023-08-20T06:45:19;11.60;;;3.35;;
22435;SDS011;11385;50.822;4.324;2023-08-20T06:47:46;10.38;;;3.35;;
22435;SDS011;11385;50.822;4.324;2023-08-20T06:50:12;11.00;;;3.30;;
22435;SDS011;11385;50.822;4.324;2023-08-20T06:52:39;11.95;;;3.45;;
22435;SDS011;11385;50.822;4.324;2023-08-20T06:55:06;12.18;;;3.33;;
22435;SDS011;11385;50.822;4.324;2023-08-20T06:57:32;12.58;;;3.50;;
22435;SDS011;11385;50.822;4.324;2023-08-20T06:59:59;11.10;;;2.70;;
22435;SDS011;11385;50.822;4.324;2023-08-20T07:02:26;8.80;;;2.83;;
22435;SDS011;11385;50.822;4.324;2023-08-20T07:04:52;10.80;;;3.30;;
22435;SDS011;11385;50.822;4.324;2023-08-20T07:07:19;10.40;;;3.40;;
22435;SDS011;11385;50.822;4.324;2023-08-20T07:09:46;10.60;;;2.90;;
22435;SDS011;11385;50.822;4.324;2023-08-20T07:12:12;7.75;;;2.62;;
22435;SDS011;11385;50.822;4.324;2023-08-20T07:14:39;10.82;;;2.85;;
22435;SDS011;11385;50.822;4.324;2023-08-20T07:17:05;10.90;;;2.90;;
22435;SDS011;11385;50.822;4.324;2023-08-20T07:19:32;12.13;;;3.10;;
22435;SDS011;11385;50.822;4.324;2023-08-20T07:21:59;7.80;;;2.20;;
22435;SDS011;11385;50.822;4.324;2023-08-20T07:24:25;9.05;;;2.45;;
22435;SDS011;11385;50.822;4.324;2023-08-20T07:26:53;8.20;;;1.90;;
22435;SDS011;11385;50.822;4.324;2023-08-20T07:29:21;8.53;;;1.85;;
22435;SDS011;11385;50.822;4.324;2023-08-20T07:31:50;5.45;;;1.65;;
22435;SDS011;11385;50.822;4.324;2023-08-20T07:34:16;8.63;;;1.87;;
22435;SDS011;11385;50.822;4.324;2023-08-20T07:36:43;9.18;;;1.85;;
22435;SDS011;11385;50.822;4.324;2023-08-20T07:39:09;8.58;;;1.70;;
22435;SDS011;11385;50.822;4.324;2023-08-20T07:41:36;9.55;;;2.08;;
22435;SDS011;11385;50.822;4.324;2023-08-20T07:44:03;8.10;;;2.12;;
22435;SDS011;11385;50.822;4.324;2023-08-20T07:46:30;8.35;;;1.92;;
22435;SDS011;11385;50.822;4.324;2023-08-20T07:48:56;17.32;;;2.25;;
22435;SDS011;11385;50.822;4.324;2023-08-20T07:51:23;10.13;;;2.20;;
22435;SDS011;11385;50.822;4.324;2023-08-20T07:53:50;8.23;;;1.98;;
22435;SDS011;11385;50.822;4.324;2023-08-20T07:56:17;7.50;;;1.77;;
22435;SDS011;11385;50.822;4.324;2023-08-20T07:58:44;5.12;;;1.55;;
22435;SDS011;11385;50.822;4.324;2023-08-20T08:01:10;7.20;;;1.70;;
22435;SDS011;11385;50.822;4.324;2023-08-20T08:03:39;6.50;;;1.87;;
22435;SDS011;11385;50.822;4.324;2023-08-20T08:06:06;9.68;;;2.25;;
22435;SDS011;11385;50.822;4.324;2023-08-20T08:08:33;7.37;;;2.00;;
22435;SDS011;11385;50.822;4.324;2023-08-20T08:10:59;5.42;;;1.52;;
22435;SDS011;11385;50.822;4.324;2023-08-20T08:13:26;9.10;;;2.22;;
22435;SDS011;11385;50.822;4.324;2023-08-20T08:15:53;6.03;;;1.50;;
22435;SDS011;11385;50.822;4.324;2023-08-20T08:18:19;8.40;;;2.12;;
22435;SDS011;11385;50.822;4.324;2023-08-20T08:20:46;5.95;;;1.70;;
22435;SDS011;11385;50.822;4.324;2023-08-20T08:23:13;6.33;;;1.82;;
22435;SDS011;11385;50.822;4.324;2023-08-20T08:25:39;8.73;;;1.90;;
22435;SDS011;11385;50.822;4.324;2023-08-20T08:28:07;6.12;;;1.70;;
22435;SDS011;11385;50.822;4.324;2023-08-20T08:30:33;6.25;;;2.00;;
22435;SDS011;11385;50.822;4.324;2023-08-20T08:33:00;7.90;;;2.33;;
22435;SDS011;11385;50.822;4.324;2023-08-20T08:35:27;10.58;;;2.33;;
22435;SDS011;11385;50.822;4.324;2023-08-20T08:37:53;7.35;;;2.10;;
22435;SDS011;11385;50.822;4.324;2023-08-20T08:40:20;7.58;;;2.37;;
22435;SDS011;11385;50.822;4.324;2023-08-20T08:42:48;18.82;;;5.60;;
22435;SDS011;11385;50.822;4.324;2023-08-20T08:45:17;11.63;;;3.40;;
22435;SDS011;11385;50.822;4.324;2023-08-20T08:47:45;8.08;;;1.98;;
22435;SDS011;11385;50.822;4.324;2023-08-20T08:50:13;6.10;;;1.55;;
22435;SDS011;11385;50.822;4.324;2023-08-20T08:52:41;7.35;;;1.70;;
22435;SDS011;11385;50.822;4.324;2023-08-20T08:55:08;6.83;;;1.80;;
22435;SDS011;11385;50.822;4.324;2023-08-20T08:57:36;8.65;;;1.87;;
22435;SDS011;11385;50.822;4.324;2023-08-20T09:00:03;10.58;;;2.58;;
22435;SDS011;11385;50.822;4.324;2023-08-20T09:02:31;8.35;;;1.92;;
22435;SDS011;11385;50.822;4.324;2023-08-20T09:04:58;8.78;;;2.55;;
22435;SDS011;11385;50.822;4.324;2023-08-20T09:07:24;7.37;;;2.22;;
22435;SDS011;11385;50.822;4.324;2023-08-20T09:09:56;10.75;;;2.35;;
22435;SDS011;11385;50.822;4.324;2023-08-20T09:12:22;8.05;;;2.65;;
22435;SDS011;11385;50.822;4.324;2023-08-20T09:14:49;5.95;;;2.02;;
22435;SDS011;11385;50.822;4.324;2023-08-20T09:17:17;5.90;;;1.95;;
22435;SDS011;11385;50.822;4.324;2023-08-20T09:19:46;10.50;;;2.90;;
22435;SDS011;11385;50.822;4.324;2023-08-20T09:22:13;6.42;;;2.17;;
22435;SDS011;11385;50.822;4.324;2023-08-20T09:24:41;6.50;;;2.27;;
22435;SDS011;11385;50.822;4.324;2023-08-20T09:27:12;5.92;;;1.62;;
22435;SDS011;11385;50.822;4.324;2023-08-20T09:29:44;9.15;;;2.30;;
22435;SDS011;11385;50.822;4.324;2023-08-20T09:32:16;5.97;;;1.65;;
22435;SDS011;11385;50.822;4.324;2023-08-20T09:34:47;7.87;;;1.70;;
22435;SDS011;11385;50.822;4.324;2023-08-20T09:37:15;7.40;;;1.92;;
22435;SDS011;11385;50.822;4.324;2023-08-20T09:39:44;6.33;;;1.70;;
22435;SDS011;11385;50.822;4.324;2023-08-20T09:42:11;7.47;;;1.70;;
22435;SDS011;11385;50.822;4.324;2023-08-20T09:44:39;5.15;;;1.40;;
22435;SDS011;11385;50.822;4.324;2023-08-20T09:47:08;6.30;;;1.80;;
22435;SDS011;11385;50.822;4.324;2023-08-20T09:49:37;5.97;;;1.52;;
22435;SDS011;11385;50.822;4.324;2023-08-20T09:52:06;5.90;;;1.70;;
22435;SDS011;11385;50.822;4.324;2023-08-20T09:54:37;7.37;;;1.50;;
22435;SDS011;11385;50.822;4.324;2023-08-20T09:57:11;5.55;;;2.00;;
22435;SDS011;11385;50.822;4.324;2023-08-20T09:59:39;6.40;;;1.50;;
22435;SDS011;11385;50.822;4.324;2023-08-20T10:02:08;4.72;;;1.45;;
22435;SDS011;11385;50.822;4.324;2023-08-20T10:04:38;3.95;;;1.70;;
22435;SDS011;11385;50.822;4.324;2023-08-20T10:07:05;7.62;;;1.50;;
22435;SDS011;11385;50.822;4.324;2023-08-20T10:09:32;8.23;;;1.80;;
22435;SDS011;11385;50.822;4.324;2023-08-20T10:11:59;5.62;;;1.67;;
22435;SDS011;11385;50.822;4.324;2023-08-20T10:14:27;7.28;;;1.82;;
22435;SDS011;11385;50.822;4.324;2023-08-20T10:16:54;5.17;;;1.30;;
22435;SDS011;11385;50.822;4.324;2023-08-20T10:19:20;5.95;;;1.90;;
22435;SDS011;11385;50.822;4.324;2023-08-20T10:21:52;6.05;;;1.30;;
22435;SDS011;11385;50.822;4.324;2023-08-20T10:24:19;6.75;;;1.50;;
22435;SDS011;11385;50.822;4.324;2023-08-20T10:26:46;5.20;;;1.40;;
22435;SDS011;11385;50.822;4.324;2023-08-20T10:31:53;9.73;;;2.00;;
22435;SDS011;11385;50.822;4.324;2023-08-20T10:37:07;4.65;;;2.00;;
22435;SDS011;11385;50.822;4.324;2023-08-20T10:39:39;8.15;;;2.50;;
22435;SDS011;11385;50.822;4.324;2023-08-20T10:42:41;9.18;;;2.55;;
22435;SDS011;11385;50.822;4.324;2023-08-20T10:44:56;6.90;;;1.90;;
22435;SDS011;11385;50.822;4.324;2023-08-20T10:47:24;6.55;;;2.05;;
22435;SDS011;11385;50.822;4.324;2023-08-20T10:49:52;5.45;;;1.55;;
22435;SDS011;11385;50.822;4.324;2023-08-20T10:52:22;6.58;;;1.92;;
22435;SDS011;11385;50.822;4.324;2023-08-20T10:54:49;6.83;;;2.02;;
22435;SDS011;11385;50.822;4.324;2023-08-20T10:57:18;9.55;;;1.77;;
22435;SDS011;11385;50.822;4.324;2023-08-20T11:02:24;6.60;;;1.98;;
22435;SDS011;11385;50.822;4.324;2023-08-20T11:04:52;6.87;;;2.10;;
22435;SDS011;11385;50.822;4.324;2023-08-20T11:07:19;6.22;;;1.50;;
22435;SDS011;11385;50.822;4.324;2023-08-20T11:09:47;5.33;;;1.67;;
22435;SDS011;11385;50.822;4.324;2023-08-20T11:12:16;10.20;;;2.22;;
22435;SDS011;11385;50.822;4.324;2023-08-20T11:14:45;5.70;;;1.47;;
22435;SDS011;11385;50.822;4.324;2023-08-20T11:17:13;4.40;;;1.32;;
22435;SDS011;11385;50.822;4.324;2023-08-20T11:19:39;7.78;;;1.90;;
22435;SDS011;11385;50.822;4.324;2023-08-20T11:22:06;4.78;;;1.65;;
22435;SDS011;11385;50.822;4.324;2023-08-20T11:24:34;5.12;;;1.30;;
22435;SDS011;11385;50.822;4.324;2023-08-20T11:27:02;5.05;;;1.60;;
22435;SDS011;11385;50.822;4.324;2023-08-20T11:29:29;4.35;;;1.22;;
22435;SDS011;11385;50.822;4.324;2023-08-20T11:31:57;4.97;;;1.35;;
22435;SDS011;11385;50.822;4.324;2023-08-20T11:34:27;4.47;;;1.45;;
22435;SDS011;11385;50.822;4.324;2023-08-20T11:36:54;4.87;;;1.30;;
22435;SDS011;11385;50.822;4.324;2023-08-20T11:39:22;5.30;;;1.20;;
22435;SDS011;11385;50.822;4.324;2023-08-20T11:41:49;5.17;;;1.35;;
22435;SDS011;11385;50.822;4.324;2023-08-20T11:44:18;4.92;;;1.25;;
22435;SDS011;11385;50.822;4.324;2023-08-20T11:46:47;6.47;;;1.50;;
22435;SDS011;11385;50.822;4.324;2023-08-20T11:49:14;4.30;;;1.30;;
22435;SDS011;11385;50.822;4.324;2023-08-20T11:51:41;3.83;;;1.27;;
22435;SDS011;11385;50.822;4.324;2023-08-20T11:54:13;5.60;;;1.30;;
22435;SDS011;11385;50.822;4.324;2023-08-20T11:56:43;7.10;;;1.70;;
22435;SDS011;11385;50.822;4.324;2023-08-20T11:59:12;7.85;;;1.80;;
22435;SDS011;11385;50.822;4.324;2023-08-20T12:01:39;4.90;;;1.32;;
22435;SDS011;11385;50.822;4.324;2023-08-20T12:04:07;4.83;;;1.30;;
22435;SDS011;11385;50.822;4.324;2023-08-20T12:06:35;5.42;;;1.42;;
22435;SDS011;11385;50.822;4.324;2023-08-20T12:11:49;4.60;;;1.17;;
22435;SDS011;11385;50.822;4.324;2023-08-20T12:14:17;5.22;;;1.37;;
22435;SDS011;11385;50.822;4.324;2023-08-20T12:16:45;4.83;;;1.27;;
22435;SDS011;11385;50.822;4.324;2023-08-20T12:19:12;6.72;;;1.10;;
22435;SDS011;11385;50.822;4.324;2023-08-20T12:21:39;4.75;;;1.25;;
22435;SDS011;11385;50.822;4.324;2023-08-20T12:24:09;5.62;;;1.20;;
22435;SDS011;11385;50.822;4.324;2023-08-20T12:26:36;4.37;;;1.30;;
22435;SDS011;11385;50.822;4.324;2023-08-20T12:29:04;4.22;;;1.10;;
22435;SDS011;11385;50.822;4.324;2023-08-20T12:31:31;4.03;;;1.02;;
22435;SDS011;11385;50.822;4.324;2023-08-20T12:33:59;3.30;;;1.07;;
22435;SDS011;11385;50.822;4.324;2023-08-20T12:36:27;4.67;;;1.30;;
22435;SDS011;11385;50.822;4.324;2023-08-20T12:38:54;3.75;;;1.20;;
22435;SDS011;11385;50.822;4.324;2023-08-20T12:41:22;4.03;;;1.00;;
22435;SDS011;11385;50.822;4.324;2023-08-20T12:43:48;3.67;;;1.10;;
22435;SDS011;11385;50.822;4.324;2023-08-20T12:46:16;4.10;;;1.30;;
22435;SDS011;11385;50.822;4.324;2023-08-20T12:48:43;6.03;;;1.20;;
22435;SDS011;11385;50.822;4.324;2023-08-20T12:51:09;4.47;;;1.10;;
22435;SDS011;11385;50.822;4.324;2023-08-20T12:53:38;4.53;;;1.10;;
22435;SDS011;11385;50.822;4.324;2023-08-20T12:56:05;4.28;;;1.15;;
22435;SDS011;11385;50.822;4.324;2023-08-20T12:58:32;4.72;;;0.98;;
22435;SDS011;11385;50.822;4.324;2023-08-20T13:00:58;6.58;;;1.70;;
22435;SDS011;11385;50.822;4.324;2023-08-20T13:03:25;4.55;;;0.90;;
22435;SDS011;11385;50.822;4.324;2023-08-20T13:05:54;3.10;;;0.98;;
22435;SDS011;11385;50.822;4.324;2023-08-20T13:08:23;4.55;;;1.32;;
22435;SDS011;11385;50.822;4.324;2023-08-20T13:10:53;5.00;;;1.35;;
22435;SDS011;11385;50.822;4.324;2023-08-20T13:13:22;2.77;;;1.00;;
22435;SDS011;11385;50.822;4.324;2023-08-20T13:15:51;5.70;;;1.20;;
22435;SDS011;11385;50.822;4.324;2023-08-20T13:18:19;4.70;;;1.00;;
22435;SDS011;11385;50.822;4.324;2023-08-20T13:20:51;6.25;;;1.42;;
22435;SDS011;11385;50.822;4.324;2023-08-20T13:23:18;5.03;;;1.12;;
22435;SDS011;11385;50.822;4.324;2023-08-20T13:25:47;5.83;;;1.20;;
22435;SDS011;11385;50.822;4.324;2023-08-20T13:28:14;4.95;;;1.37;;
22435;SDS011;11385;50.822;4.324;2023-08-20T13:30:40;4.33;;;1.27;;
22435;SDS011;11385;50.822;4.324;2023-08-20T13:33:07;4.87;;;1.20;;
22435;SDS011;11385;50.822;4.324;2023-08-20T13:35:34;4.22;;;1.10;;
22435;SDS011;11385;50.822;4.324;2023-08-20T13:38:01;5.20;;;1.20;;
22435;SDS011;11385;50.822;4.324;2023-08-20T13:40:28;4.15;;;1.10;;
22435;SDS011;11385;50.822;4.324;2023-08-20T13:42:55;5.67;;;1.65;;
22435;SDS011;11385;50.822;4.324;2023-08-20T13:45:22;5.60;;;1.17;;
22435;SDS011;11385;50.822;4.324;2023-08-20T13:47:49;5.60;;;1.32;;
22435;SDS011;11385;50.822;4.324;2023-08-20T13:50:16;4.83;;;1.30;;
22435;SDS011;11385;50.822;4.324;2023-08-20T13:52:43;5.10;;;1.12;;
22435;SDS011;11385;50.822;4.324;2023-08-20T13:55:10;3.75;;;1.10;;
22435;SDS011;11385;50.822;4.324;2023-08-20T13:57:36;3.80;;;0.98;;
22435;SDS011;11385;50.822;4.324;2023-08-20T14:00:04;6.30;;;1.32;;
22435;SDS011;11385;50.822;4.324;2023-08-20T14:02:35;5.20;;;1.35;;
22435;SDS011;11385;50.822;4.324;2023-08-20T14:05:02;5.45;;;1.42;;
22435;SDS011;11385;50.822;4.324;2023-08-20T14:07:30;5.67;;;1.40;;
22435;SDS011;11385;50.822;4.324;2023-08-20T14:09:58;5.58;;;1.37;;
22435;SDS011;11385;50.822;4.324;2023-08-20T14:12:25;5.37;;;1.25;;
22435;SDS011;11385;50.822;4.324;2023-08-20T14:14:52;5.42;;;1.67;;
22435;SDS011;11385;50.822;4.324;2023-08-20T14:17:18;6.50;;;1.27;;
22435;SDS011;11385;50.822;4.324;2023-08-20T14:19:45;5.35;;;1.30;;
22435;SDS011;11385;50.822;4.324;2023-08-20T14:22:12;6.05;;;1.10;;
22435;SDS011;11385;50.822;4.324;2023-08-20T14:24:40;4.83;;;1.25;;
22435;SDS011;11385;50.822;4.324;2023-08-20T14:27:06;5.62;;;1.60;;
22435;SDS011;11385;50.822;4.324;2023-08-20T14:29:34;3.85;;;1.30;;
22435;SDS011;11385;50.822;4.324;2023-08-20T14:32:02;7.60;;;1.87;;
22435;SDS011;11385;50.822;4.324;2023-08-20T14:34:29;7.85;;;1.37;;
22435;SDS011;11385;50.822;4.324;2023-08-20T14:36:56;4.72;;;1.55;;
22435;SDS011;11385;50.822;4.324;2023-08-20T14:39:23;4.78;;;1.20;;
22435;SDS011;11385;50.822;4.324;2023-08-20T14:41:50;6.25;;;1.35;;
22435;SDS011;11385;50.822;4.324;2023-08-20T14:44:16;6.90;;;1.40;;
22435;SDS011;11385;50.822;4.324;2023-08-20T14:46:43;3.33;;;0.98;;
22435;SDS011;11385;50.822;4.324;2023-08-20T14:49:09;4.30;;;1.20;;
22435;SDS011;11385;50.822;4.324;2023-08-20T14:51:36;3.90;;;1.20;;
22435;SDS011;11385;50.822;4.324;2023-08-20T14:54:03;5.85;;;1.20;;
22435;SDS011;11385;50.822;4.324;2023-08-20T14:56:30;4.83;;;1.47;;
22435;SDS011;11385;50.822;4.324;2023-08-20T14:58:57;7.47;;;1.32;;
22435;SDS011;11385;50.822;4.324;2023-08-20T15:01:23;4.78;;;1.35;;
22435;SDS011;11385;50.822;4.324;2023-08-20T15:03:50;4.75;;;1.27;;